createdAt,value
2023-04-22T00:05:38.693Z,19.5
2023-04-22T00:11:30.385Z,19.5
2023-04-22T00:17:22.489Z,19.5
2023-04-22T00:23:14.810Z,19.5
2023-04-22T00:29:06.175Z,19.5
2023-04-22T00:34:58.863Z,19.5
2023-04-22T00:40:35.090Z,19.5
2023-04-22T00:46:26.828Z,19.5
2023-04-22T00:52:19.150Z,19.5
2023-04-22T00:58:10.441Z,19.5
2023-04-22T01:09:24.839Z,19.4
2023-04-22T01:15:04.440Z,19.4
2023-04-22T01:20:57.374Z,19.4
2023-04-22T01:26:48.239Z,19.4
2023-04-22T01:32:40.494Z,19.4
2023-04-22T01:38:32.624Z,19.4
2023-04-22T01:44:23.942Z,19.4
2023-04-22T01:50:16.197Z,19.4
2023-04-22T01:55:52.419Z,19.4
2023-04-22T02:01:28.301Z,19.4
2023-04-22T02:07:21.477Z,19.4
2023-04-22T02:13:13.832Z,19.4
2023-04-22T02:19:04.894Z,19.4
2023-04-22T02:24:57.315Z,19.4
2023-04-22T02:30:48.080Z,19.4
2023-04-22T02:36:40.158Z,19.4
2023-04-22T02:42:31.754Z,19.4
2023-04-22T02:48:23.435Z,19.4
2023-04-22T02:53:59.351Z,19.4
2023-04-22T02:59:51.293Z,19.4
2023-04-22T03:05:47.842Z,19.4
2023-04-22T03:11:39.514Z,19.4
2023-04-22T03:17:32.015Z,19.4
2023-04-22T03:23:24.009Z,19.4
2023-04-22T03:29:15.262Z,19.4
2023-04-22T03:35:10.073Z,19.4
2023-04-22T03:41:02.799Z,19.4
2023-04-22T03:46:55.729Z,19.4
2023-04-22T03:52:48.944Z,19.4
2023-04-22T03:58:40.732Z,19.4
2023-04-22T04:04:20.876Z,19.4
2023-04-22T04:10:14.973Z,19.4
2023-04-22T04:16:06.311Z,19.3
2023-04-22T04:21:59.945Z,19.3
2023-04-22T04:27:52.552Z,19.3
2023-04-22T04:33:29.471Z,19.3
2023-04-22T04:39:21.285Z,19.3
2023-04-22T04:44:57.984Z,19.3
2023-04-22T04:50:51.034Z,19.3
2023-04-22T04:56:42.377Z,19.3
2023-04-22T05:02:34.607Z,19.3
2023-04-22T05:08:28.122Z,19.3
2023-04-22T05:14:19.561Z,19.3
2023-04-22T05:20:11.526Z,19.3
2023-04-22T05:26:02.661Z,19.3
2023-04-22T05:31:39.094Z,19.3
2023-04-22T05:37:31.371Z,19.3
2023-04-22T05:43:26.051Z,19.3
2023-04-22T05:49:17.420Z,19.3
2023-04-22T05:55:09.278Z,19.3
2023-04-22T06:01:01.534Z,19.3
2023-04-22T06:06:56.481Z,19.3
2023-04-22T06:12:38.810Z,19.3
2023-04-22T06:18:30.372Z,19.3
2023-04-22T06:24:24.406Z,19.3
2023-04-22T06:30:00.705Z,19.3
2023-04-22T06:35:52.703Z,19.3
2023-04-22T06:41:44.170Z,19.3
2023-04-22T06:47:35.817Z,19.3
2023-04-22T06:53:29.692Z,19.3
2023-04-22T06:59:21.822Z,19.3
2023-04-22T07:04:59.984Z,19.2
2023-04-22T07:10:52.126Z,19.2
2023-04-22T07:16:27.968Z,19.2
2023-04-22T07:22:20.360Z,19.2
2023-04-22T07:28:12.003Z,19.2
2023-04-22T07:33:48.310Z,19.2
2023-04-22T07:39:40.167Z,19.2
2023-04-22T07:45:31.530Z,19.2
2023-04-22T07:51:26.271Z,19.2
2023-04-22T07:57:03.032Z,19.2
2023-04-22T08:02:56.508Z,19.2
2023-04-22T08:09:06.218Z,19.2
2023-04-22T08:14:58.650Z,19.1
2023-04-22T08:20:50.545Z,19.2
2023-04-22T08:26:41.565Z,19.2
2023-04-22T08:32:33.748Z,19.2
2023-04-22T08:38:14.898Z,19.1
2023-04-22T08:44:14.009Z,19.1
2023-04-22T08:50:08.209Z,19.2
2023-04-22T08:56:00.102Z,19.1
2023-04-22T09:01:36.552Z,19.1
2023-04-22T09:07:13.951Z,19.1
2023-04-22T09:13:07.566Z,19.1
2023-04-22T09:18:59.268Z,19.1
2023-04-22T09:24:50.753Z,19.1
2023-04-22T09:30:42.817Z,19.1
2023-04-22T09:36:34.897Z,19.1
2023-04-22T09:42:35.477Z,19.1
2023-04-22T09:48:27.763Z,19.1
2023-04-22T09:54:19.056Z,19.1
2023-04-22T10:00:09.736Z,19.1
2023-04-22T10:06:02.079Z,19.1
2023-04-22T10:11:53.465Z,19.1
2023-04-22T10:17:54.333Z,19.1
2023-04-22T10:23:30.881Z,19.1
2023-04-22T10:29:21.296Z,19.1
2023-04-22T10:35:01.558Z,19.1
2023-04-22T10:40:55.522Z,19.1
2023-04-22T10:46:47.701Z,19.1
2023-04-22T10:52:24.175Z,19.1
2023-04-22T10:58:20.516Z,19.1
2023-04-22T11:04:27.381Z,19.1
2023-04-22T11:09:47.675Z,19.1
2023-04-22T11:15:39.693Z,19.3
2023-04-22T11:21:31.865Z,20.1
2023-04-22T11:27:26.345Z,20.1
2023-04-22T11:33:19.547Z,20.2
2023-04-22T11:38:55.829Z,20.6
2023-04-22T11:45:16.751Z,21.6
2023-04-22T11:51:08.900Z,21.6
2023-04-22T11:57:00.204Z,21.6
2023-04-22T12:02:36.747Z,21.9
2023-04-22T12:08:31.326Z,22.8
2023-04-22T12:14:22.446Z,22.8
2023-04-22T12:20:16.812Z,22.8
2023-04-22T12:26:08.681Z,22.9
2023-04-22T12:32:01.859Z,23
2023-04-22T12:37:53.772Z,23.6
2023-04-22T12:43:46.192Z,23.6
2023-04-22T12:49:38.870Z,23.6
2023-04-22T12:55:30.719Z,23.6
2023-04-22T13:01:22.707Z,23.6
2023-04-22T13:07:17.210Z,23.6
2023-04-22T13:13:32.509Z,23.6
2023-04-22T13:19:27.099Z,23.6
2023-04-22T13:25:03.439Z,23.6
2023-04-22T13:30:58.681Z,23.6
2023-04-22T13:36:51.197Z,23.6
2023-04-22T13:42:43.016Z,23.6
2023-04-22T13:48:35.409Z,23.6
2023-04-22T13:54:28.162Z,23.6
2023-04-22T14:00:05.082Z,23.6
2023-04-22T14:05:57.677Z,23.6
2023-04-22T14:11:35.076Z,23.6
2023-04-22T14:17:12.935Z,23.6
2023-04-22T14:22:51.158Z,23.6
2023-04-22T14:28:42.844Z,23.6
2023-04-22T14:34:36.348Z,23.6
2023-04-22T14:40:29.884Z,23.6
2023-04-22T14:46:23.893Z,23.6
2023-04-22T14:52:15.552Z,23.6
2023-04-22T14:58:15.862Z,23.6
2023-04-22T15:04:09.358Z,23.6
2023-04-22T15:10:00.053Z,23.6
2023-04-22T15:15:51.529Z,23.6
2023-04-22T15:21:45.388Z,23.6
2023-04-22T15:27:37.273Z,23.6
2023-04-22T15:33:31.232Z,23.6
2023-04-22T15:39:22.683Z,23.6
2023-04-22T15:45:15.687Z,23.6
2023-04-22T15:50:51.708Z,23.6
2023-04-22T15:56:42.952Z,23.6
2023-04-22T16:02:57.600Z,23.6
2023-04-22T16:08:49.816Z,23.6
2023-04-22T16:14:41.826Z,23.6
2023-04-22T16:20:33.092Z,23.6
2023-04-22T16:26:24.480Z,23.6
2023-04-22T16:32:16.402Z,23.6
2023-04-22T16:37:51.749Z,23.6
2023-04-22T16:43:27.833Z,23.6
2023-04-22T16:49:04.018Z,23.6
2023-04-22T16:54:55.303Z,23.6
2023-04-22T17:00:47.784Z,23.6
2023-04-22T17:06:41.812Z,23.6
2023-04-22T17:12:33.387Z,23.6
2023-04-22T17:18:25.161Z,23.6
2023-04-22T17:24:16.761Z,23.6
2023-04-22T17:29:51.878Z,23.6
2023-04-22T17:35:43.685Z,23.6
2023-04-22T17:41:36.385Z,23.5
2023-04-22T17:47:40.609Z,23.5
2023-04-22T17:53:32.201Z,23.6
2023-04-22T17:59:23.606Z,23.5
2023-04-22T18:05:16.621Z,23.5
2023-04-22T18:11:07.715Z,23.5
2023-04-22T18:17:01.052Z,23.5
2023-04-22T18:23:04.825Z,23.5
2023-04-22T18:28:56.412Z,23.4
2023-04-22T18:34:33.406Z,23.5
2023-04-22T18:40:23.764Z,23.4
2023-04-22T18:46:00.011Z,23.4
2023-04-22T18:51:51.600Z,23.4
2023-04-22T18:57:26.514Z,23.4
2023-04-22T19:03:05.062Z,23.4
2023-04-22T19:08:57.975Z,23.4
2023-04-22T19:14:49.748Z,23.4
2023-04-22T19:20:26.624Z,23.4
2023-04-22T19:26:03.090Z,23.4
2023-04-22T19:31:39.859Z,23.4
2023-04-22T19:37:31.948Z,23.4
2023-04-22T19:43:10.107Z,23.4
2023-04-22T19:48:45.960Z,23.4
2023-04-22T19:54:37.367Z,23.4
2023-04-22T20:00:29.209Z,23.4
2023-04-22T20:06:22.906Z,23.3
2023-04-22T20:12:14.453Z,23.3
2023-04-22T20:18:06.297Z,23.3
2023-04-22T20:23:58.443Z,23.3
2023-04-22T20:29:50.662Z,23.3
2023-04-22T20:35:42.450Z,23.3
2023-04-22T20:41:33.137Z,23.3
2023-04-22T20:47:28.449Z,23.3
2023-04-22T20:53:19.793Z,23.3
2023-04-22T20:59:22.907Z,23.3
2023-04-22T21:05:16.637Z,23.3
2023-04-22T21:11:08.680Z,23.3
2023-04-22T21:17:01.218Z,23.3
2023-04-22T21:22:53.045Z,23.3
2023-04-22T21:28:44.883Z,23.3
2023-04-22T21:34:48.300Z,23.3
2023-04-22T21:40:41.952Z,23.3
2023-04-22T21:46:34.336Z,23.3
2023-04-22T21:52:09.489Z,23.3
2023-04-22T21:58:00.938Z,23.2
2023-04-22T22:03:37.777Z,23.2
2023-04-22T22:09:17.237Z,23.2
2023-04-22T22:15:20.377Z,23.2
2023-04-22T22:21:13.695Z,23.2
2023-04-22T22:27:05.536Z,23.2
2023-04-22T22:32:57.445Z,23.2
2023-04-22T22:38:49.781Z,23.2
2023-04-22T22:44:41.625Z,23.2
2023-04-22T22:50:34.560Z,23.2
2023-04-22T22:56:26.049Z,23.1
2023-04-22T23:02:18.161Z,23.1
2023-04-22T23:08:11.351Z,23.1
2023-04-22T23:13:47.845Z,23.1
2023-04-22T23:19:39.005Z,23.1
2023-04-22T23:25:30.672Z,23.1
2023-04-22T23:31:21.596Z,23.1
2023-04-22T23:37:12.796Z,23.1
2023-04-22T23:43:04.729Z,23.1
2023-04-22T23:48:57.400Z,23.1
2023-04-22T23:54:33.466Z,23.1
